METAR OBSERVATIONS
Looking Back 6 hours

  • KPBF 150753Z AUTO 05005KT 8SM CLR 24/23 A2994 RMK AO2 SLP134 T02440228 =
  • KPBF 150653Z AUTO VRB04KT 10SM CLR 25/23 A2994 RMK AO2 SLP136 T02500233 =
  • KPBF 150553Z AUTO 10004KT 10SM CLR 25/23 A2994 RMK AO2 SLP134 T02500228 10311 20250 403390239 58005 =
  • KPBF 150453Z AUTO VRB04KT 10SM CLR 26/23 A2995 RMK AO2 SLP138 T02560228 =
  • KPBF 150353Z AUTO 10004KT 10SM CLR 26/23 A2995 RMK AO2 SLP140 T02610233 =
  • KPBF 150253Z AUTO VRB04KT 10SM CLR 27/23 A2995 RMK AO2 SLP139 T02670233 53007 =
    ________________________________________